Time;durP1;ratioP1;P1;durP2;ratioP2;P2;SDS_P1;SDS_P2;PMS_P1;PMS_P2;Temp;Humidity;BMP_temperature;BMP_pressure;BME280_temperature;BME280_humidity;BME280_pressure;Samples;Min_cycle;Max_cycle;Signal;HPM_P1;HPM_P2
2022/06/02 00:00:14;;;;;;;74.00;68.80;;;;;;;11.34;100.00;102027.78;2018061;70;26296;-75
2022/06/02 00:03:05;;;;;;;76.73;71.33;;;;;;;11.19;100.00;102029.02;1934228;73;26244;-75
2022/06/02 00:06:02;;;;;;;77.70;72.40;;;;;;;10.75;100.00;102030.41;1934196;73;26659;-68
2022/06/02 00:11:56;;;;;;;74.97;69.47;;;;;;;10.91;100.00;102027.30;2033611;69;32653;-67
2022/06/02 00:14:29;;;;;;;77.07;71.47;;;;;;;10.96;100.00;102030.97;2017182;70;26199;-66
2022/06/02 00:17:03;;;;;;;77.13;71.63;;;;;;;10.99;100.00;102033.80;2011876;70;26730;-67
2022/06/02 00:19:39;;;;;;;74.47;68.97;;;;;;;11.04;100.00;102031.62;2016691;71;26654;-68
2022/06/02 00:22:14;;;;;;;76.13;70.70;;;;;;;11.04;100.00;102028.27;2019152;70;26222;-74
2022/06/02 00:24:49;;;;;;;72.27;66.90;;;;;;;11.02;100.00;102035.20;2012968;70;26219;-75
2022/06/02 00:27:25;;;;;;;75.17;69.47;;;;;;;11.05;100.00;102038.84;2016810;70;26709;-67
2022/06/02 00:30:01;;;;;;;73.70;68.30;;;;;;;10.82;100.00;102031.62;2011164;70;26230;-75
2022/06/02 00:32:38;;;;;;;69.43;64.23;;;;;;;10.83;100.00;102034.13;2012821;70;26677;-66
2022/06/02 00:35:16;;;;;;;66.37;61.17;;;;;;;10.77;100.00;102035.18;2020328;70;26304;-75
2022/06/02 00:37:51;;;;;;;68.93;63.63;;;;;;;10.78;100.00;102038.23;2014269;70;26226;-75
2022/06/02 00:40:23;;;;;;;70.97;65.47;;;;;;;10.68;100.00;102038.11;2024184;70;26786;-75
2022/06/02 00:42:59;;;;;;;76.30;70.80;;;;;;;10.60;100.00;102034.39;2007897;70;26336;-75
2022/06/02 00:45:29;;;;;;;75.47;69.87;;;;;;;10.64;100.00;102036.95;2025015;70;26709;-67
2022/06/02 00:48:09;;;;;;;72.80;67.10;;;;;;;10.61;100.00;102038.83;2017044;70;26741;-66
2022/06/02 00:50:53;;;;;;;74.37;68.97;;;;;;;10.72;100.00;102038.43;2012833;70;26665;-76
2022/06/02 00:53:40;;;;;;;74.00;68.50;;;;;;;10.75;100.00;102038.75;2008055;70;26408;-75
2022/06/02 00:59:19;;;;;;;72.50;67.00;;;;;;;10.86;100.00;102035.03;2016650;70;26725;-76
2022/06/02 01:05:00;;;;;;;71.07;65.67;;;;;;;10.74;100.00;102016.22;2041493;69;32612;-67
2022/06/02 01:10:55;;;;;;;71.30;65.70;;;;;;;10.37;100.00;102020.70;2052493;69;32526;-68
2022/06/02 01:16:48;;;;;;;71.50;66.10;;;;;;;10.24;100.00;102028.00;2037820;69;32637;-67
2022/06/02 01:23:27;;;;;;;72.93;67.47;;;;;;;10.19;100.00;102039.03;2060964;69;32645;-67
2022/06/02 01:26:27;;;;;;;75.10;69.70;;;;;;;10.25;100.00;102047.20;2023563;70;26190;-74
2022/06/02 01:29:03;;;;;;;76.10;70.57;;;;;;;10.14;100.00;102045.30;1941010;73;26304;-67
2022/06/02 01:31:43;;;;;;;75.93;70.33;;;;;;;10.22;100.00;102047.72;1937796;74;26205;-74
2022/06/02 01:37:31;;;;;;;70.90;65.40;;;;;;;10.30;100.00;102041.73;2025711;69;32533;-68
2022/06/02 01:40:18;;;;;;;72.43;66.77;;;;;;;10.46;100.00;102046.41;1937516;73;26285;-68
2022/06/02 01:42:57;;;;;;;73.93;68.43;;;;;;;10.43;100.00;102050.25;1937392;73;26282;-69
2022/06/02 01:49:09;;;;;;;68.60;63.20;;;;;;;10.02;100.00;102041.23;2051719;69;32694;-67
2022/06/02 01:51:45;;;;;;;72.50;66.97;;;;;;;9.85;100.00;102045.95;1944888;72;26631;-67
2022/06/02 01:54:20;;;;;;;69.23;63.83;;;;;;;9.86;100.00;102046.78;1946028;72;26747;-67
2022/06/02 01:57:06;;;;;;;69.20;64.00;;;;;;;9.83;100.00;102052.85;2009165;70;26297;-68
2022/06/02 01:59:51;;;;;;;70.17;64.67;;;;;;;9.64;100.00;102054.16;2020199;70;26636;-76
2022/06/02 02:02:25;;;;;;;66.80;61.20;;;;;;;9.54;100.00;102052.06;2008131;70;26335;-75
2022/06/02 02:05:25;;;;;;;67.90;62.63;;;;;;;9.63;100.00;102048.34;2009631;70;26261;-75
2022/06/02 02:08:07;;;;;;;68.00;62.63;;;;;;;9.71;100.00;102047.92;1991086;70;26280;-67
2022/06/02 02:13:49;;;;;;;68.47;62.97;;;;;;;9.97;100.00;102038.38;2053410;69;32564;-75
2022/06/02 02:16:27;;;;;;;65.73;60.43;;;;;;;9.90;100.00;102051.59;2019315;70;26209;-68
2022/06/02 02:19:04;;;;;;;67.43;62.13;;;;;;;9.94;100.00;102051.38;2019612;70;26718;-67
2022/06/02 02:21:38;;;;;;;69.30;63.90;;;;;;;9.91;100.00;102053.28;2011916;70;26238;-66
2022/06/02 02:24:16;;;;;;;68.60;63.33;;;;;;;9.78;100.00;102050.83;2015651;70;26320;-67
2022/06/02 02:26:50;;;;;;;69.33;64.03;;;;;;;9.97;100.00;102051.41;2010880;70;26295;-74
2022/06/02 02:29:26;;;;;;;69.87;64.57;;;;;;;9.92;100.00;102054.13;2010286;70;26305;-66
2022/06/02 02:32:02;;;;;;;73.07;67.57;;;;;;;9.53;100.00;102052.60;2016389;70;26293;-67
2022/06/02 02:34:40;;;;;;;69.43;64.03;;;;;;;9.31;100.00;102049.38;2013102;70;26190;-67
2022/06/02 02:37:14;;;;;;;67.77;62.57;;;;;;;9.23;100.00;102056.17;2027282;70;26335;-75
2022/06/02 02:39:50;;;;;;;71.80;66.40;;;;;;;9.14;100.00;102057.65;1938649;73;26227;-67
2022/06/02 02:42:24;;;;;;;70.63;65.47;;;;;;;9.08;100.00;102056.69;2009962;70;26693;-67
2022/06/02 02:45:06;;;;;;;67.37;62.20;;;;;;;9.06;100.00;102058.04;2016688;70;26711;-75
2022/06/02 02:47:42;;;;;;;72.67;67.37;;;;;;;9.13;100.00;102049.88;2005279;70;26681;-75
2022/06/02 02:50:17;;;;;;;66.13;60.87;;;;;;;9.05;100.00;102054.96;2012469;70;26251;-74
2022/06/02 02:52:51;;;;;;;60.87;55.67;;;;;;;9.12;100.00;102056.50;2012425;70;26218;-75
2022/06/02 02:55:24;;;;;;;66.43;61.13;;;;;;;9.25;100.00;102053.13;2016454;71;26241;-75
2022/06/02 02:57:57;;;;;;;70.00;64.73;;;;;;;9.27;100.00;102049.58;2012166;70;26296;-76
2022/06/02 03:00:31;;;;;;;66.90;61.90;;;;;;;9.19;100.00;102050.83;2019353;70;26747;-68
2022/06/02 03:03:06;;;;;;;70.40;65.00;;;;;;;9.09;100.00;102044.52;2025316;70;26303;-69
2022/06/02 03:05:46;;;;;;;68.40;63.10;;;;;;;9.23;100.00;102050.63;2014365;70;26293;-68
2022/06/02 03:11:35;;;;;;;73.77;67.97;;;;;;;9.38;100.00;102038.97;2044320;69;32616;-76
2022/06/02 03:17:23;;;;;;;70.43;65.03;;;;;;;9.44;100.00;102038.84;2034186;69;32630;-74
2022/06/02 03:23:17;;;;;;;71.57;65.97;;;;;;;9.42;100.00;102028.52;2061281;69;32628;-68
2022/06/02 03:25:50;;;;;;;72.63;67.10;;;;;;;9.24;100.00;102032.06;2013417;70;26321;-67
2022/06/02 03:28:24;;;;;;;74.13;68.53;;;;;;;9.23;100.00;102037.30;2031593;70;26717;-75
2022/06/02 03:31:00;;;;;;;74.20;68.60;;;;;;;9.10;100.00;102039.83;1937723;73;26227;-69
2022/06/02 03:34:04;;;;;;;73.97;68.33;;;;;;;9.28;100.00;102042.41;1937447;73;26707;-67
2022/06/02 03:36:52;;;;;;;71.53;65.63;;;;;;;9.29;100.00;102040.45;1919756;73;26208;-67
2022/06/02 03:39:28;;;;;;;81.00;75.00;;;;;;;9.35;100.00;102049.18;1939715;73;26224;-74
2022/06/02 03:45:31;;;;;;;75.30;69.50;;;;;;;9.34;100.00;102032.24;2045880;69;32218;-67
2022/06/02 03:51:29;;;;;;;77.87;71.97;;;;;;;9.27;100.00;102035.72;2061017;69;32597;-68
2022/06/02 03:54:17;;;;;;;79.20;73.17;;;;;;;9.20;100.00;102042.78;2026963;70;26151;-75
2022/06/02 04:00:13;;;;;;;76.90;71.00;;;;;;;9.23;100.00;102038.16;2060512;69;32589;-75
2022/06/02 04:02:47;;;;;;;78.27;72.27;;;;;;;9.34;100.00;102052.50;1943740;71;932651;-75
2022/06/02 04:05:41;;;;;;;80.73;74.63;;;;;;;9.28;100.00;102051.27;1947980;73;26235;-75
2022/06/02 04:08:20;;;;;;;79.63;73.47;;;;;;;9.43;100.00;102050.16;1953209;73;26204;-75
2022/06/02 04:10:54;;;;;;;82.27;76.47;;;;;;;9.29;100.00;102051.55;1947375;73;26324;-67
2022/06/02 04:13:39;;;;;;;81.33;75.23;;;;;;;9.18;100.00;102052.45;1955334;73;26173;-68
2022/06/02 04:23:25;;;;;;;77.30;71.40;;;;;;;9.28;100.00;102056.28;1938395;73;26201;-66
2022/06/02 04:25:59;;;;;;;77.10;71.30;;;;;;;9.33;100.00;102067.45;1921755;73;26666;-68
2022/06/02 04:28:34;;;;;;;72.77;66.90;;;;;;;9.18;100.00;102076.02;2002536;70;26281;-67
2022/06/02 04:31:09;;;;;;;84.97;79.13;;;;;;;9.01;100.00;102069.02;2018125;70;26227;-76
2022/06/02 04:33:42;;;;;;;87.17;81.17;;;;;;;8.94;100.00;102081.60;1933013;73;26209;-67
2022/06/02 04:36:17;;;;;;;85.47;79.37;;;;;;;8.94;100.00;102082.17;1937265;73;26321;-75
2022/06/02 04:38:51;;;;;;;86.90;80.87;;;;;;;9.06;100.00;102087.14;1930550;73;26213;-75
2022/06/02 04:41:26;;;;;;;87.20;81.07;;;;;;;9.26;100.00;102086.16;1942495;73;26698;-73
2022/06/02 04:44:00;;;;;;;87.17;80.77;;;;;;;9.32;100.00;102084.34;1930919;73;26216;-74
2022/06/02 04:46:38;;;;;;;84.13;78.33;;;;;;;9.41;100.00;102082.87;1939585;73;26267;-73
2022/06/02 04:49:12;;;;;;;82.77;76.87;;;;;;;9.46;100.00;102077.39;1974077;72;26677;-66
2022/06/02 04:54:59;;;;;;;83.40;77.33;;;;;;;9.40;100.00;102077.02;2053092;69;32807;-67
2022/06/02 05:00:40;;;;;;;86.73;80.33;;;;;;;9.37;100.00;102081.69;2060744;69;32672;-76
2022/06/02 05:03:14;;;;;;;93.23;86.70;;;;;;;9.38;100.00;102086.11;2022499;70;26182;-75
2022/06/02 05:05:47;;;;;;;87.63;81.33;;;;;;;9.47;100.00;102087.41;2015791;70;26453;-76
2022/06/02 05:08:45;;;;;;;86.93;80.63;;;;;;;9.40;100.00;102090.88;1981513;71;26197;-75
2022/06/02 05:11:27;;;;;;;89.40;83.10;;;;;;;9.49;100.00;102090.25;1910298;74;26204;-67
2022/06/02 05:14:01;;;;;;;86.50;80.10;;;;;;;9.70;100.00;102090.08;1894746;75;26218;-67
2022/06/02 05:20:16;;;;;;;78.30;72.20;;;;;;;9.73;100.00;102089.58;2055282;69;32687;-67
2022/06/02 05:23:33;;;;;;;86.53;79.93;;;;;;;9.76;100.00;102098.78;2013359;70;26250;-73
2022/06/02 05:26:32;;;;;;;85.67;78.97;;;;;;;9.87;100.00;102107.61;1965928;70;26201;-67
2022/06/02 05:32:38;;;;;;;84.27;77.77;;;;;;;10.13;100.00;102103.88;2051004;69;32870;-74
2022/06/02 05:35:18;;;;;;;79.87;73.43;;;;;;;10.18;100.00;102115.96;2011190;70;26674;-67
2022/06/02 05:38:01;;;;;;;82.43;76.03;;;;;;;10.13;100.00;102113.60;2009076;70;26269;-73
2022/06/02 05:40:37;;;;;;;75.37;69.10;;;;;;;10.20;100.00;102112.37;2017626;70;26291;-68
2022/06/02 05:43:22;;;;;;;72.37;66.23;;;;;;;10.26;100.00;102105.81;1943478;73;26225;-66
2022/06/02 05:46:00;;;;;;;79.37;72.80;;;;;;;10.25;100.00;102110.22;1942657;73;26733;-73
2022/06/02 05:48:38;;;;;;;79.30;72.80;;;;;;;10.36;100.00;102107.89;1944208;73;26331;-66
2022/06/02 05:51:12;;;;;;;78.10;71.33;;;;;;;10.52;100.00;102114.02;1940291;73;26224;-73
2022/06/02 05:53:49;;;;;;;78.63;71.33;;;;;;;10.55;100.00;102117.66;1941247;73;26697;-73
2022/06/02 05:56:27;;;;;;;83.83;76.87;;;;;;;10.64;100.00;102118.92;1940815;73;26202;-73
2022/06/02 06:02:43;;;;;;;78.60;71.77;;;;;;;10.86;100.00;102109.23;2059306;69;32778;-74
2022/06/02 06:05:20;;;;;;;78.00;71.30;;;;;;;10.91;100.00;102118.47;2015957;71;26166;-68
2022/06/02 06:08:05;;;;;;;76.80;70.00;;;;;;;11.01;100.00;102115.54;1991503;71;26233;-73
2022/06/02 06:14:17;;;;;;;80.77;74.00;;;;;;;11.24;100.00;102109.73;2040647;69;32728;-67
2022/06/02 06:16:52;;;;;;;78.27;71.60;;;;;;;11.23;100.00;102118.63;1946051;72;26291;-67
2022/06/02 06:19:43;;;;;;;76.80;70.33;;;;;;;11.47;100.00;102120.58;1937269;73;26631;-75
2022/06/02 06:22:25;;;;;;;80.40;73.50;;;;;;;11.44;100.00;102115.55;1937779;73;26237;-75
2022/06/02 06:28:35;;;;;;;83.40;76.10;;;;;;;11.60;100.00;102103.48;2041572;69;32651;-76
2022/06/02 06:34:16;;;;;;;86.50;78.70;;;;;;;11.88;100.00;102109.38;2030612;69;32682;-75
2022/06/02 06:37:05;;;;;;;97.07;89.03;;;;;;;11.83;100.00;102114.34;2018694;70;26245;-74
2022/06/02 06:39:42;;;;;;;97.50;89.40;;;;;;;12.12;100.00;102115.45;2019865;70;26751;-74
2022/06/02 06:42:20;;;;;;;97.17;89.00;;;;;;;12.12;100.00;102115.45;2015340;70;26214;-65
2022/06/02 06:44:55;;;;;;;99.20;91.00;;;;;;;12.30;100.00;102113.66;1937328;73;26266;-74
2022/06/02 06:47:30;;;;;;;94.37;86.37;;;;;;;12.30;100.00;102117.84;1937840;73;26220;-66
2022/06/02 06:53:23;;;;;;;96.83;88.80;;;;;;;12.57;100.00;102108.02;2049060;69;32601;-67
2022/06/02 06:59:10;;;;;;;99.37;90.93;;;;;;;12.69;100.00;102115.63;2060754;69;32695;-66
2022/06/02 07:01:46;;;;;;;97.23;89.20;;;;;;;12.77;100.00;102120.14;2017059;70;26206;-66
2022/06/02 07:04:23;;;;;;;95.73;87.93;;;;;;;12.94;100.00;102128.33;2012187;70;26231;-76
2022/06/02 07:10:04;;;;;;;94.20;86.33;;;;;;;13.10;100.00;102113.91;2060827;69;32586;-68
2022/06/02 07:12:54;;;;;;;97.87;89.87;;;;;;;13.09;100.00;102124.22;2028765;71;26157;-77
2022/06/02 07:15:43;;;;;;;90.23;83.33;;;;;;;13.26;100.00;102128.27;2016697;71;26719;-66
2022/06/02 07:18:20;;;;;;;87.77;81.07;;;;;;;13.33;100.00;102127.45;2013010;70;26199;-78
2022/06/02 07:20:55;;;;;;;89.37;82.60;;;;;;;13.29;100.00;102129.11;2030983;70;26276;-75
2022/06/02 07:23:40;;;;;;;86.00;79.60;;;;;;;13.57;100.00;102127.25;2016428;70;26261;-66
2022/06/02 07:26:16;;;;;;;81.13;75.00;;;;;;;13.66;100.00;102125.61;2015077;70;26724;-74
2022/06/02 07:28:54;;;;;;;84.90;78.90;;;;;;;13.80;100.00;102126.48;2005046;70;26343;-75
2022/06/02 07:31:38;;;;;;;76.07;70.47;;;;;;;13.85;100.00;102123.71;2027993;70;26279;-74
2022/06/02 07:34:20;;;;;;;74.40;69.03;;;;;;;14.03;100.00;102123.19;2015539;71;26252;-74
2022/06/02 07:37:00;;;;;;;73.60;68.20;;;;;;;14.17;100.00;102122.06;2025205;70;26202;-65
2022/06/02 07:39:55;;;;;;;72.03;66.93;;;;;;;14.34;100.00;102118.44;2015523;70;26226;-65
2022/06/02 07:43:25;;;;;;;72.13;66.63;;;;;;;14.81;100.00;102113.94;2010847;70;26675;-75
2022/06/02 07:46:02;;;;;;;73.07;68.07;;;;;;;14.77;100.00;102117.03;2006889;71;26233;-66
2022/06/02 07:51:49;;;;;;;74.37;69.47;;;;;;;15.12;100.00;102107.70;2033805;69;32723;-83
2022/06/02 07:54:31;;;;;;;70.40;65.40;;;;;;;15.20;100.00;102122.52;2020698;70;26202;-75
2022/06/02 08:00:22;;;;;;;72.07;67.33;;;;;;;15.36;100.00;102105.95;2035708;69;32695;-67
2022/06/02 08:03:26;;;;;;;70.70;65.87;;;;;;;15.68;100.00;102102.72;1924348;73;26282;-67
2022/06/02 08:06:04;;;;;;;69.00;64.47;;;;;;;15.86;100.00;102117.47;2014044;70;26214;-66
2022/06/02 08:11:45;;;;;;;65.20;60.97;;;;;;;16.24;100.00;102097.56;2061143;69;32705;-76
2022/06/02 08:14:18;;;;;;;66.23;61.93;;;;;;;16.28;100.00;102094.45;2025922;70;26680;-81
2022/06/02 08:16:55;;;;;;;69.63;65.23;;;;;;;16.34;100.00;102094.69;2011222;70;26206;-83
2022/06/02 08:19:32;;;;;;;68.53;64.23;;;;;;;16.48;100.00;102093.42;2010071;70;26207;-82
2022/06/02 08:22:06;;;;;;;66.23;62.23;;;;;;;16.62;100.00;102090.23;2029311;70;26248;-75
2022/06/02 08:24:43;;;;;;;61.77;58.10;;;;;;;16.78;100.00;102091.19;1929580;73;26215;-83
2022/06/02 08:27:47;;;;;;;61.27;57.67;;;;;;;16.89;100.00;102087.72;2025778;71;26274;-76
2022/06/02 08:30:23;;;;;;;60.90;57.50;;;;;;;17.04;100.00;102086.12;1908727;73;26309;-80
2022/06/02 08:33:24;;;;;;;62.77;59.17;;;;;;;17.17;100.00;102089.62;1937861;74;26606;-78
2022/06/02 08:35:58;;;;;;;64.53;60.83;;;;;;;17.56;100.00;102082.93;1922606;74;24171;-78
2022/06/02 08:38:39;;;;;;;58.43;55.23;;;;;;;17.99;100.00;102077.53;1934300;73;26199;-79
2022/06/02 08:41:45;;;;;;;57.17;54.17;;;;;;;17.99;100.00;102077.53;1966860;72;26733;-77
2022/06/02 08:44:37;;;;;;;53.50;50.73;;;;;;;17.94;100.00;102080.98;1936310;74;24124;-77
2022/06/02 08:47:48;;;;;;;56.83;53.93;;;;;;;17.78;100.00;102085.17;1933883;73;24146;-75
2022/06/02 08:51:03;;;;;;;40.60;38.70;;;;;;;18.15;100.00;102086.55;2008294;70;26285;-78
2022/06/02 08:54:17;;;;;;;45.83;43.63;;;;;;;18.12;100.00;102075.92;2000844;70;26684;-78
2022/06/02 08:57:17;;;;;;;43.00;40.80;;;;;;;18.17;100.00;102082.31;2015013;70;26225;-79
2022/06/02 09:00:20;;;;;;;37.40;35.70;;;;;;;18.34;100.00;102085.96;2005080;70;24158;-75
2022/06/02 09:03:35;;;;;;;48.20;45.67;;;;;;;18.00;100.00;102083.44;1934448;73;26259;-75
2022/06/02 09:06:46;;;;;;;41.27;39.23;;;;;;;18.50;100.00;102083.14;1937672;73;24217;-82
2022/06/02 09:09:34;;;;;;;46.97;44.43;;;;;;;18.26;100.00;102086.66;1986191;70;24269;-81
2022/06/02 09:16:12;;;;;;;33.00;31.27;;;;;;;18.54;100.00;102078.59;2060795;69;30634;-70
2022/06/02 09:22:41;;;;;;;27.80;26.50;;;;;;;18.60;100.00;102076.53;2039396;69;30530;-77
2022/06/02 09:29:01;;;;;;;30.10;27.87;;;;;;;18.79;100.00;102075.03;2045388;69;30583;-71
2022/06/02 09:35:02;;;;;;;31.53;29.73;;;;;;;18.91;100.00;102076.79;2038363;69;30640;-75
2022/06/02 09:44:50;;;;;;;29.60;26.43;;;;;;;18.88;100.00;102064.72;2043869;69;30500;-75
2022/06/02 09:47:34;;;;;;;24.17;22.77;;;;;;;18.78;100.00;102064.94;2014093;70;24142;-75
2022/06/02 09:50:57;;;;;;;25.30;23.90;;;;;;;18.92;100.00;102067.17;2016280;70;24130;-75
2022/06/02 09:53:53;;;;;;;25.53;24.17;;;;;;;18.88;100.00;102059.92;2007069;71;24070;-70
2022/06/02 09:56:50;;;;;;;23.77;22.57;;;;;;;18.95;100.00;102070.23;1939871;73;24157;-69
2022/06/02 09:59:27;;;;;;;21.97;20.87;;;;;;;18.82;100.00;102067.39;1937741;74;24168;-71
2022/06/02 10:02:10;;;;;;;24.63;23.33;;;;;;;18.88;100.00;102068.94;1966068;72;24281;-76
2022/06/02 10:08:34;;;;;;;21.17;20.07;;;;;;;18.86;100.00;102066.46;2007822;69;30755;-72
2022/06/02 10:11:22;;;;;;;17.50;16.60;;;;;;;19.00;100.00;102070.66;1980498;72;26723;-73
2022/06/02 10:17:44;;;;;;;16.03;15.23;;;;;;;18.91;100.00;102059.89;2049134;69;30659;-70
2022/06/02 10:20:40;;;;;;;15.53;14.77;;;;;;;18.78;100.00;102062.96;2017063;71;24148;-71
2022/06/02 10:23:22;;;;;;;14.73;13.97;;;;;;;18.68;100.00;102056.67;2011259;70;24184;-69
2022/06/02 10:26:10;;;;;;;14.67;13.87;;;;;;;18.80;100.00;102055.02;2017451;70;24156;-73
2022/06/02 10:29:21;;;;;;;13.97;13.37;;;;;;;19.10;100.00;102059.20;2016464;70;24288;-73
2022/06/02 10:32:24;;;;;;;15.07;14.27;;;;;;;19.02;100.00;102057.95;1944120;72;24115;-76
2022/06/02 10:35:44;;;;;;;14.73;13.63;;;;;;;19.11;100.00;102051.02;1946446;72;24187;-70
2022/06/02 10:38:30;;;;;;;14.10;13.10;;;;;;;19.14;100.00;102055.18;1850000;74;24237;-74
2022/06/02 10:41:19;;;;;;;15.13;13.67;;;;;;;19.17;100.00;102051.16;1972316;72;24562;-70
2022/06/02 10:44:14;;;;;;;15.23;14.00;;;;;;;19.25;100.00;102043.41;1952248;73;24116;-70
2022/06/02 10:47:15;;;;;;;13.33;12.70;;;;;;;19.23;100.00;102050.48;1965600;72;24321;-73
2022/06/02 10:50:00;;;;;;;14.83;14.13;;;;;;;19.16;100.00;102050.08;1937764;73;24192;-79
2022/06/02 10:52:59;;;;;;;14.20;13.13;;;;;;;19.34;100.00;102043.50;1931456;73;24159;-78
2022/06/02 10:59:47;;;;;;;13.40;12.80;;;;;;;19.42;100.00;102037.95;2060914;69;30572;-71
2022/06/02 11:06:21;;;;;;;12.83;12.30;;;;;;;19.35;100.00;102033.30;2049304;69;30636;-75
2022/06/02 11:13:14;;;;;;;12.40;11.80;;;;;;;19.42;100.00;102023.02;2041742;69;30639;-75
2022/06/02 11:16:00;;;;;;;12.13;11.53;;;;;;;19.51;100.00;102024.78;2064384;69;24212;-70
2022/06/02 11:19:00;;;;;;;12.03;11.33;;;;;;;19.45;100.00;102026.64;2051191;69;26708;-70
2022/06/02 11:22:05;;;;;;;13.00;12.20;;;;;;;19.51;100.00;102026.19;1930693;72;24212;-73
2022/06/02 11:24:55;;;;;;;12.20;11.53;;;;;;;19.49;100.00;102024.85;1986825;72;24239;-71
2022/06/02 11:27:37;;;;;;;11.70;11.13;;;;;;;19.47;100.00;102027.14;1975013;72;24881;-74
2022/06/02 11:30:28;;;;;;;13.00;12.37;;;;;;;19.59;100.00;102020.41;1983472;72;24614;-72
2022/06/02 11:33:26;;;;;;;11.70;11.20;;;;;;;19.72;100.00;102021.51;2015844;70;24231;-72
2022/06/02 11:36:31;;;;;;;12.13;11.63;;;;;;;19.91;100.00;102014.52;1976076;72;24175;-75
2022/06/02 11:39:31;;;;;;;17.27;16.53;;;;;;;19.67;100.00;102018.23;2030106;69;24131;-71
2022/06/02 11:42:06;;;;;;;20.13;18.93;;;;;;;19.64;100.00;102016.03;2055524;69;27080;-71
2022/06/02 11:44:41;;;;;;;14.20;13.20;;;;;;;19.76;100.00;102006.45;2070514;69;24172;-71
2022/06/02 11:47:27;;;;;;;13.83;12.93;;;;;;;19.80;100.00;102007.48;2061954;69;24205;-75
2022/06/02 11:50:18;;;;;;;12.13;11.47;;;;;;;19.64;100.00;102012.41;2055349;69;24237;-74
2022/06/02 11:53:27;;;;;;;11.47;10.90;;;;;;;19.44;100.00;101999.03;2062931;69;24087;-70
2022/06/02 11:59:48;;;;;;;12.03;11.43;;;;;;;19.68;100.00;101987.45;2045260;69;30663;-72
2022/06/02 12:02:47;;;;;;;11.50;11.00;;;;;;;19.73;100.00;101989.31;2020511;70;24233;-69
2022/06/02 12:05:31;;;;;;;12.60;11.90;;;;;;;19.76;100.00;101981.66;1933578;73;24148;-69
2022/06/02 12:08:42;;;;;;;11.90;11.17;;;;;;;19.86;100.00;101976.58;1988810;71;26299;-75
2022/06/02 12:11:42;;;;;;;12.13;11.43;;;;;;;20.06;100.00;101970.17;1979938;72;24176;-69
2022/06/02 12:14:46;;;;;;;11.53;11.03;;;;;;;19.71;100.00;101968.52;1978046;72;24210;-75
2022/06/02 12:17:32;;;;;;;11.40;10.90;;;;;;;19.91;100.00;101965.74;1975422;72;24604;-77
2022/06/02 12:24:02;;;;;;;14.47;11.90;;;;;;;19.95;100.00;101955.48;2044798;69;30633;-71
2022/06/02 12:29:54;;;;;;;12.23;11.13;;;;;;;20.13;100.00;101954.45;1959099;72;30740;-72
2022/06/02 12:32:35;;;;;;;11.27;10.77;;;;;;;20.19;100.00;101953.16;1914531;73;24609;-72
2022/06/02 12:35:33;;;;;;;11.20;10.70;;;;;;;20.25;100.00;101951.02;1892459;75;24241;-77
2022/06/02 12:42:24;;;;;;;11.20;10.73;;;;;;;20.03;100.00;101948.22;2060857;69;30691;-74
2022/06/02 12:45:30;;;;;;;12.17;11.00;;;;;;;19.95;100.00;101949.84;2026343;70;26700;-72
2022/06/02 12:48:41;;;;;;;11.63;10.93;;;;;;;20.14;100.00;101951.05;2014872;70;24162;-77
2022/06/02 12:51:39;;;;;;;10.83;10.33;;;;;;;20.33;100.00;101947.44;1927756;73;24158;-77
2022/06/02 12:54:52;;;;;;;11.20;10.43;;;;;;;20.19;100.00;101939.63;1933146;73;24713;-71
2022/06/02 12:57:51;;;;;;;11.43;10.93;;;;;;;20.10;100.00;101941.56;2011072;70;24170;-71
2022/06/02 13:04:37;;;;;;;11.07;10.60;;;;;;;20.05;100.00;101936.89;2049104;69;30622;-77
2022/06/02 13:07:45;;;;;;;11.50;11.00;;;;;;;20.17;100.00;101932.05;1995583;71;24158;-71
2022/06/02 13:10:35;;;;;;;12.57;11.50;;;;;;;20.23;100.00;101929.36;1963182;72;24165;-77
2022/06/02 13:17:21;;;;;;;18.20;12.13;;;;;;;20.60;100.00;101929.45;2028981;69;30559;-70
2022/06/02 13:23:57;;;;;;;11.53;10.60;;;;;;;20.63;100.00;101927.39;2060733;69;30615;-70
2022/06/02 13:27:02;;;;;;;11.17;10.57;;;;;;;20.52;100.00;101928.85;2017808;70;24637;-70
2022/06/02 13:30:12;;;;;;;11.50;10.90;;;;;;;20.06;100.00;101927.28;2004608;70;24161;-76
2022/06/02 13:36:10;;;;;;;11.00;10.50;;;;;;;20.29;100.00;101922.41;2060785;69;30607;-76
2022/06/02 13:39:15;;;;;;;10.77;10.30;;;;;;;20.27;100.00;101930.38;2052880;69;24218;-69
2022/06/02 13:42:12;;;;;;;16.13;15.53;;;;;;;20.33;100.00;101929.09;1973853;72;24645;-71
2022/06/02 13:45:28;;;;;;;16.67;15.57;;;;;;;20.32;100.00;101924.02;1990107;72;24571;-72
2022/06/02 13:48:44;;;;;;;11.80;11.20;;;;;;;20.51;100.00;101924.36;1962193;72;26248;-79
2022/06/02 13:58:37;;;;;;;10.47;10.07;;;;;;;20.45;100.00;101918.05;2012181;70;24165;-76
2022/06/02 14:01:55;;;;;;;10.53;10.13;;;;;;;20.43;100.00;101918.94;2006544;70;24228;-75
2022/06/02 14:04:51;;;;;;;10.90;10.30;;;;;;;20.63;100.00;101909.03;2013007;71;26350;-70
2022/06/02 14:10:59;;;;;;;10.97;10.50;;;;;;;20.69;100.00;101909.98;2061591;69;31066;-78
2022/06/02 14:13:53;;;;;;;11.63;10.60;;;;;;;20.77;100.00;101906.34;2027471;70;24129;-87
2022/06/02 14:16:28;;;;;;;11.83;10.97;;;;;;;20.83;100.00;101900.80;2012735;70;24702;-81
2022/06/02 14:22:34;;;;;;;11.27;10.40;;;;;;;20.81;100.00;101898.04;2033624;69;31035;-76
2022/06/02 14:25:08;;;;;;;11.23;10.53;;;;;;;20.92;100.00;101902.23;2019152;70;24140;-78
2022/06/02 14:27:42;;;;;;;10.70;10.30;;;;;;;20.95;100.00;101897.33;2012840;70;24656;-69
2022/06/02 14:30:16;;;;;;;10.77;10.30;;;;;;;20.76;100.00;101891.97;2014886;70;24109;-79
2022/06/02 14:32:52;;;;;;;11.27;10.67;;;;;;;20.94;100.00;101893.41;2015668;70;24453;-68
2022/06/02 14:39:09;;;;;;;11.10;10.60;;;;;;;21.18;100.00;101886.77;2053349;69;30574;-78
2022/06/02 14:41:46;;;;;;;10.93;10.47;;;;;;;21.16;100.00;101891.90;1948332;73;24630;-82
2022/06/02 14:44:40;;;;;;;11.17;10.57;;;;;;;21.17;100.00;101892.98;1941666;73;24157;-79
2022/06/02 14:47:24;;;;;;;11.10;10.60;;;;;;;20.86;100.00;101889.42;1935892;73;24176;-78
2022/06/02 14:50:23;;;;;;;10.57;10.17;;;;;;;20.68;100.00;101888.55;1965421;72;24212;-78
2022/06/02 14:53:12;;;;;;;10.90;10.50;;;;;;;20.64;100.00;101897.42;1935168;73;24222;-82
2022/06/02 14:55:47;;;;;;;10.27;9.87;;;;;;;20.56;100.00;101891.75;2018773;70;24159;-82
2022/06/02 14:58:23;;;;;;;10.47;9.97;;;;;;;20.55;100.00;101888.09;2017299;70;24773;-77
2022/06/02 15:01:04;;;;;;;10.33;9.83;;;;;;;20.56;100.00;101883.28;2017865;70;24146;-77
2022/06/02 15:04:15;;;;;;;10.47;10.07;;;;;;;20.68;100.00;101883.48;2031596;70;24142;-77
2022/06/02 15:07:15;;;;;;;11.20;10.77;;;;;;;20.77;100.00;101880.92;1938073;73;24292;-77
2022/06/02 15:09:58;;;;;;;11.00;10.60;;;;;;;20.62;100.00;101880.57;1930451;73;24225;-77
2022/06/02 15:12:41;;;;;;;11.17;10.67;;;;;;;20.90;100.00;101876.30;1975090;72;24155;-78
2022/06/02 15:19:23;;;;;;;11.27;10.77;;;;;;;21.10;100.00;101866.34;2061046;69;31080;-77
2022/06/02 15:25:12;;;;;;;12.33;11.47;;;;;;;20.95;100.00;101869.66;2061159;69;33118;-68
2022/06/02 15:31:15;;;;;;;11.40;10.80;;;;;;;20.89;100.00;101857.10;2053485;69;30562;-78
2022/06/02 15:34:24;;;;;;;11.83;11.30;;;;;;;20.94;100.00;101857.53;2011762;70;24620;-78
2022/06/02 15:37:26;;;;;;;11.93;11.23;;;;;;;20.92;100.00;101856.20;2014312;70;24161;-80
2022/06/02 15:40:36;;;;;;;11.57;10.97;;;;;;;20.88;100.00;101860.25;2031336;70;24183;-81
2022/06/02 15:43:21;;;;;;;11.20;10.70;;;;;;;20.75;100.00;101854.19;1980927;70;24154;-78
2022/06/02 15:46:27;;;;;;;13.83;13.03;;;;;;;20.64;100.00;101850.00;2021137;70;24220;-79